Time;durP1;ratioP1;P1;durP2;ratioP2;P2;SDS_P1;SDS_P2;PMS_P1;PMS_P2;Temp;Humidity;BMP_temperature;BMP_pressure;BME280_temperature;BME280_humidity;BME280_pressure;Samples;Min_cycle;Max_cycle;Signal;HPM_P1;HPM_P2
2022/10/07 00:01:07;;;;;;;;;16.00;12.40;;;;;15.78;52.55;102157.44;5014381;28;47441;-60
2022/10/07 00:03:32;;;;;;;;;18.50;14.25;;;;;15.88;52.18;102161.69;4997096;28;46089;-60
2022/10/07 00:06:03;;;;;;;;;13.50;13.25;;;;;15.86;52.38;102150.88;5014835;28;45759;-60
2022/10/07 00:08:29;;;;;;;;;13.20;9.80;;;;;15.80;52.39;102158.06;5015223;28;45541;-59
2022/10/07 00:10:55;;;;;;;;;14.75;12.75;;;;;15.61;53.12;102148.72;5014338;28;46916;-60
2022/10/07 00:13:20;;;;;;;;;10.50;10.50;;;;;15.42;52.93;102117.22;5013072;28;45417;-60
2022/10/07 00:15:46;;;;;;;;;14.50;12.50;;;;;15.65;52.38;102144.47;5013265;28;45378;-60
2022/10/07 00:18:12;;;;;;;;;14.00;12.00;;;;;14.99;52.91;102047.34;5013516;28;45872;-60
2022/10/07 00:20:38;;;;;;;;;13.00;12.50;;;;;15.53;53.56;102149.75;5014291;28;45395;-59
2022/10/07 00:23:04;;;;;;;;;15.25;14.00;;;;;15.48;53.58;102148.69;5013112;28;46030;-60
2022/10/07 00:25:29;;;;;;;;;14.20;13.00;;;;;15.53;53.64;102141.47;5014476;28;45334;-60
2022/10/07 00:27:55;;;;;;;;;14.00;12.50;;;;;15.63;53.18;102138.28;5014754;28;45368;-60
2022/10/07 00:30:21;;;;;;;;;28.00;22.00;;;;;15.69;53.00;102144.91;5013835;28;45891;-60
2022/10/07 00:32:46;;;;;;;;;19.25;15.00;;;;;15.63;53.11;102141.03;5013704;28;45403;-60
2022/10/07 00:35:12;;;;;;;;;13.75;11.25;;;;;15.55;52.92;102136.59;5014297;28;45450;-60
2022/10/07 00:37:41;;;;;;;;;14.75;11.00;;;;;15.52;53.25;102133.41;5012980;28;45307;-59
2022/10/07 00:40:11;;;;;;;;;35.40;32.00;;;;;15.50;53.06;102138.25;5013719;28;45582;-60
2022/10/07 00:42:37;;;;;;;;;12.40;10.20;;;;;15.46;53.47;102137.84;5013833;28;45708;-59
2022/10/07 00:45:03;;;;;;;;;23.60;19.40;;;;;15.51;53.45;102134.44;5014004;28;45369;-59
2022/10/07 00:47:33;;;;;;;;;19.75;17.00;;;;;15.44;53.67;102128.91;5014225;28;45499;-60
2022/10/07 00:50:04;;;;;;;;;27.00;23.00;;;;;15.40;53.15;102124.84;5014428;28;46721;-59
2022/10/07 00:52:34;;;;;;;;;21.20;15.80;;;;;15.42;53.76;102125.50;5017120;28;45475;-60
2022/10/07 00:55:02;;;;;;;;;15.40;13.40;;;;;15.46;53.47;102124.00;5017346;28;45325;-60
2022/10/07 00:57:28;;;;;;;;;16.20;14.80;;;;;15.22;53.54;102071.00;5016082;28;45379;-59
2022/10/07 00:59:54;;;;;;;;;14.25;10.50;;;;;15.24;53.32;102065.25;5017121;28;46312;-60
2022/10/07 01:02:21;;;;;;;;;15.00;11.40;;;;;15.48;53.29;102110.81;5015714;28;45480;-59
2022/10/07 01:04:47;;;;;;;;;11.20;10.60;;;;;15.48;53.24;102109.97;4999158;28;45330;-59
2022/10/07 01:07:14;;;;;;;;;11.75;11.00;;;;;15.55;53.15;102110.81;5017497;28;45241;-59
2022/10/07 01:09:39;;;;;;;;;8.40;5.00;;;;;15.53;53.05;102102.72;5015671;28;45382;-59
2022/10/07 01:12:38;;;;;;;;;27.50;16.50;;;;;15.53;53.36;102108.25;5015492;28;45373;-59
2022/10/07 01:15:22;;;;;;;;;23.80;20.40;;;;;15.51;53.74;102104.00;5017022;28;45410;-59
2022/10/07 01:17:53;;;;;;;;;18.60;14.40;;;;;15.51;52.91;102098.47;5015792;28;45912;-59
2022/10/07 01:20:43;;;;;;;;;13.00;10.60;;;;;15.52;53.48;102094.66;4981306;28;45848;-60
2022/10/07 01:23:31;;;;;;;;;16.60;11.60;;;;;15.47;53.33;102098.03;5014966;28;45538;-60
2022/10/07 01:26:03;;;;;;;;;10.80;10.80;;;;;15.49;53.67;102087.63;5016801;28;45371;-60
2022/10/07 01:28:51;;;;;;;;;15.00;13.40;;;;;15.25;53.28;102056.75;4998731;28;45554;-60
2022/10/07 01:31:19;;;;;;;;;15.80;12.60;;;;;15.49;53.51;102089.53;4999136;28;45643;-59
2022/10/07 01:33:45;;;;;;;;;10.20;10.20;;;;;15.47;54.23;102091.66;5015552;28;45453;-59
2022/10/07 01:36:14;;;;;;;;;18.75;16.50;;;;;15.17;54.62;102052.25;5016679;28;45313;-59
2022/10/07 01:38:41;;;;;;;;;17.60;17.00;;;;;15.39;54.05;102084.41;5015490;28;45607;-59
2022/10/07 01:41:08;;;;;;;;;12.00;12.00;;;;;15.29;54.09;102071.88;4998406;28;45605;-60
2022/10/07 01:43:34;;;;;;;;;18.40;16.80;;;;;15.24;54.90;102076.31;5015122;28;45374;-60
2022/10/07 01:46:00;;;;;;;;;15.25;14.25;;;;;15.17;54.70;102071.63;4998497;28;45391;-58
2022/10/07 01:48:25;;;;;;;;;13.25;13.25;;;;;15.07;55.01;102079.50;4998583;28;45388;-59
2022/10/07 01:50:51;;;;;;;;;12.25;10.50;;;;;14.93;54.78;102042.66;5016295;28;46163;-59
2022/10/07 01:53:30;;;;;;;;;11.25;11.25;;;;;15.11;54.88;102060.56;5014590;28;45385;-59
2022/10/07 01:56:10;;;;;;;;;15.20;11.00;;;;;14.94;54.50;102033.31;5016068;28;45479;-59
2022/10/07 01:58:38;;;;;;;;;12.40;8.00;;;;;15.09;54.69;102051.63;5014766;28;45688;-59
2022/10/07 02:01:16;;;;;;;;;11.20;9.60;;;;;14.83;55.18;102043.06;5014420;28;46728;-59
2022/10/07 02:04:00;;;;;;;;;12.80;10.20;;;;;14.64;55.38;102031.72;4994933;28;45343;-59
2022/10/07 02:06:25;;;;;;;;;13.00;9.00;;;;;14.68;55.58;102048.72;4996259;28;45432;-60
2022/10/07 02:08:53;;;;;;;;;11.50;11.50;;;;;14.64;56.00;102044.69;4996573;28;45459;-59
2022/10/07 02:11:22;;;;;;;;;19.20;17.20;;;;;14.60;56.14;102029.56;4994652;28;46185;-59
2022/10/07 02:14:07;;;;;;;;;16.00;13.00;;;;;14.34;55.79;101996.13;4994933;28;45846;-59
2022/10/07 02:16:36;;;;;;;;;13.00;11.80;;;;;14.32;56.17;102001.03;4994929;28;45447;-59
2022/10/07 02:19:15;;;;;;;;;10.40;10.20;;;;;14.41;56.27;102023.75;4977391;28;45507;-59
2022/10/07 02:21:40;;;;;;;;;10.80;9.40;;;;;14.54;56.79;102027.63;4998031;28;46417;-59
2022/10/07 02:24:06;;;;;;;;;8.25;8.25;;;;;14.68;56.00;102031.31;5048003;28;45335;-59
2022/10/07 02:26:32;;;;;;;;;11.60;9.20;;;;;14.69;55.39;102019.19;4997922;28;45358;-59
2022/10/07 02:28:58;;;;;;;;;8.00;8.00;;;;;14.63;55.86;102021.72;5047574;28;45689;-59
2022/10/07 02:31:29;;;;;;;;;9.25;7.00;;;;;14.56;55.64;102003.44;5014576;28;46659;-59
2022/10/07 02:33:56;;;;;;;;;9.80;8.80;;;;;14.56;55.95;102014.50;5014377;28;45736;-59
2022/10/07 02:36:25;;;;;;;;;11.40;8.00;;;;;14.41;56.34;101974.06;5014597;28;45380;-58
2022/10/07 02:38:51;;;;;;;;;10.40;8.40;;;;;14.58;55.79;102001.31;5031554;28;45392;-59
2022/10/07 02:41:36;;;;;;;;;12.75;9.25;;;;;14.49;55.57;102004.28;5030692;28;45403;-59
2022/10/07 02:44:29;;;;;;;;;8.40;6.20;;;;;14.49;55.91;102001.50;5014480;28;45328;-59
2022/10/07 02:46:57;;;;;;;;;12.00;9.00;;;;;14.47;56.41;102000.84;5014297;28;45391;-59
2022/10/07 02:49:23;;;;;;;;;12.20;8.20;;;;;14.45;56.54;102002.97;5016133;28;45582;-59
2022/10/07 02:51:56;;;;;;;;;13.50;9.00;;;;;14.47;56.41;101997.25;5047380;28;46107;-59
2022/10/07 02:54:24;;;;;;;;;11.40;11.00;;;;;14.52;56.31;101986.44;4998041;28;45471;-59
2022/10/07 02:56:50;;;;;;;;;9.60;8.60;;;;;14.48;56.16;101985.97;5014280;28;45367;-59
2022/10/07 02:59:16;;;;;;;;;14.25;11.75;;;;;14.27;56.13;101947.44;5015360;28;45303;-60
2022/10/07 03:01:44;;;;;;;;;11.00;9.50;;;;;14.45;56.41;101985.53;5015224;28;45840;-60
2022/10/07 03:04:10;;;;;;;;;8.60;7.60;;;;;14.21;56.71;101949.97;4979685;28;45463;-60
2022/10/07 03:06:36;;;;;;;;;14.60;10.40;;;;;14.17;56.86;101945.94;4995425;28;45395;-60
2022/10/07 03:09:02;;;;;;;;;14.25;8.75;;;;;14.30;57.03;101974.66;4994423;28;45450;-59
2022/10/07 03:11:28;;;;;;;;;12.20;12.20;;;;;14.28;56.67;101974.00;4993993;28;46255;-59
2022/10/07 03:13:53;;;;;;;;;14.25;12.25;;;;;14.05;56.95;101939.31;4993045;28;45718;-60
2022/10/07 03:16:19;;;;;;;;;12.25;12.25;;;;;14.11;57.45;101963.34;4995551;28;45981;-60
2022/10/07 03:18:45;;;;;;;;;8.75;8.75;;;;;13.97;57.33;101948.63;4995299;28;45347;-59
2022/10/07 03:21:10;;;;;;;;;12.25;9.00;;;;;13.95;57.71;101929.53;4995255;28;46178;-59
2022/10/07 03:23:37;;;;;;;;;12.75;10.25;;;;;14.18;57.86;101969.75;4993950;28;45771;-59
2022/10/07 03:26:02;;;;;;;;;10.20;9.40;;;;;14.18;57.16;101966.09;4995491;28;45247;-59
2022/10/07 03:28:29;;;;;;;;;13.00;9.00;;;;;14.08;58.04;101964.59;4995388;28;45400;-61
2022/10/07 03:31:02;;;;;;;;;15.20;11.60;;;;;14.04;58.14;101963.28;5004625;28;45683;-59
2022/10/07 03:33:29;;;;;;;;;13.60;8.80;;;;;13.73;58.85;101928.78;5011108;28;45418;-59
2022/10/07 03:35:55;;;;;;;;;15.00;12.25;;;;;13.89;58.49;101966.22;5013016;28;45398;-58
2022/10/07 03:38:21;;;;;;;;;12.50;11.25;;;;;13.91;58.28;101961.34;5014177;28;45461;-59
2022/10/07 03:40:47;;;;;;;;;14.20;13.00;;;;;14.00;58.13;101962.03;5013939;28;45691;-59
2022/10/07 03:43:12;;;;;;;;;19.50;15.00;;;;;14.07;57.89;101959.28;5013220;28;45354;-58
2022/10/07 03:45:50;;;;;;;;;14.50;13.50;;;;;14.06;57.86;101958.44;5014744;28;45218;-58
2022/10/07 03:48:16;;;;;;;;;17.00;12.80;;;;;14.00;57.88;101950.13;5012557;28;45308;-59
2022/10/07 03:50:48;;;;;;;;;13.75;12.00;;;;;14.03;58.42;101958.00;4991563;28;47765;-58
2022/10/07 03:53:13;;;;;;;;;11.80;10.40;;;;;14.01;58.56;101962.84;5013786;28;45253;-58
2022/10/07 03:55:39;;;;;;;;;15.00;13.50;;;;;13.92;58.21;101952.00;5014781;28;45453;-59
2022/10/07 03:58:05;;;;;;;;;15.75;15.25;;;;;13.90;58.46;101936.69;5014686;28;45384;-59
2022/10/07 04:00:30;;;;;;;;;15.00;13.00;;;;;13.88;57.84;101933.31;5013217;28;47721;-58
2022/10/07 04:02:55;;;;;;;;;15.75;13.50;;;;;14.00;58.24;101953.75;5014166;28;45255;-59
2022/10/07 04:05:21;;;;;;;;;13.25;13.25;;;;;14.03;58.38;101945.03;5014552;28;45387;-59
2022/10/07 04:07:48;;;;;;;;;19.00;13.50;;;;;14.04;58.34;101948.66;5013507;28;45502;-59
2022/10/07 04:10:15;;;;;;;;;14.00;13.00;;;;;14.03;58.28;101950.56;5014782;28;45872;-60
2022/10/07 04:12:41;;;;;;;;;16.00;14.20;;;;;14.09;57.87;101948.91;5012894;28;45355;-60
2022/10/07 04:15:07;;;;;;;;;13.60;13.60;;;;;14.13;57.59;101943.81;5014423;28;45334;-60
2022/10/07 04:17:33;;;;;;;;;15.50;14.00;;;;;14.09;57.83;101924.88;5014331;28;45280;-60
2022/10/07 04:19:58;;;;;;;;;13.00;11.25;;;;;14.18;57.97;101944.88;5012826;28;46048;-60
2022/10/07 04:22:24;;;;;;;;;16.25;14.50;;;;;14.02;57.39;101917.63;5014006;28;45470;-60
2022/10/07 04:27:34;;;;;;;;;14.40;13.20;;;;;14.15;57.63;101942.53;5017637;28;45336;-60
2022/10/07 04:30:00;;;;;;;;;14.40;12.00;;;;;14.16;57.83;101933.22;5017298;28;45379;-60
2022/10/07 04:32:25;;;;;;;;;16.00;14.75;;;;;14.14;57.31;101929.78;5017265;28;45397;-59
2022/10/07 04:34:52;;;;;;;;;15.00;12.75;;;;;14.07;57.04;101912.34;5017640;28;45418;-59
2022/10/07 04:37:18;;;;;;;;;15.60;14.40;;;;;14.21;57.16;101938.94;5016347;28;45566;-58
2022/10/07 04:39:43;;;;;;;;;12.75;12.00;;;;;14.21;57.40;101940.88;5032592;28;47426;-59
2022/10/07 04:43:17;;;;;;;;;15.75;14.50;;;;;14.00;56.83;101901.28;5017232;28;45351;-59
2022/10/07 04:44:54;;;;;;;;;13.20;13.20;;;;;14.19;57.25;101937.47;5017098;28;45601;-59
2022/10/07 04:47:19;;;;;;;;;16.00;13.75;;;;;14.20;57.15;101934.47;5017475;28;45302;-59
2022/10/07 04:49:45;;;;;;;;;17.50;14.25;;;;;14.01;57.04;101893.84;5015667;28;45543;-60
2022/10/07 04:52:10;;;;;;;;;13.50;13.00;;;;;14.14;57.16;101928.94;5017359;28;45345;-59
2022/10/07 04:54:38;;;;;;;;;18.00;14.75;;;;;14.15;57.38;101923.19;5017364;28;45405;-60
2022/10/07 04:57:03;;;;;;;;;19.60;14.80;;;;;14.15;57.24;101922.38;5032826;28;45661;-59
2022/10/07 04:59:29;;;;;;;;;13.00;11.75;;;;;14.13;57.00;101919.81;5017066;28;45793;-59
2022/10/07 05:01:55;;;;;;;;;16.25;14.25;;;;;14.14;57.46;101926.19;5017018;28;45290;-59
2022/10/07 05:04:20;;;;;;;;;17.00;14.00;;;;;14.10;57.12;101926.59;4998547;28;45450;-59
2022/10/07 05:06:46;;;;;;;;;15.25;12.75;;;;;14.09;57.62;101924.06;4977858;28;47394;-59
2022/10/07 05:09:11;;;;;;;;;15.25;14.00;;;;;14.06;57.20;101916.16;5015831;28;47639;-61
2022/10/07 05:11:37;;;;;;;;;14.25;14.00;;;;;13.99;56.86;101916.16;5015514;28;45403;-60
2022/10/07 05:14:02;;;;;;;;;16.50;14.25;;;;;14.07;57.61;101921.50;5017094;28;45265;-60
2022/10/07 05:16:28;;;;;;;;;14.75;13.50;;;;;13.71;57.73;101866.56;5017575;28;45538;-58
2022/10/07 05:18:54;;;;;;;;;13.50;12.00;;;;;14.02;57.57;101910.22;5015313;28;46594;-58
2022/10/07 05:21:20;;;;;;;;;18.60;13.60;;;;;14.01;57.74;101921.44;5015707;28;45470;-60
2022/10/07 05:23:45;;;;;;;;;13.75;13.75;;;;;13.90;57.61;101900.81;5016896;28;45297;-59
2022/10/07 05:26:13;;;;;;;;;14.75;13.50;;;;;13.91;58.36;101911.66;5017195;28;45809;-59
2022/10/07 05:28:39;;;;;;;;;12.40;11.40;;;;;13.85;57.97;101920.75;5016823;28;46980;-61
2022/10/07 05:31:12;;;;;;;;;15.20;14.40;;;;;13.88;57.95;101920.34;5015367;28;45392;-59
2022/10/07 05:33:37;;;;;;;;;19.40;15.00;;;;;13.86;58.15;101921.63;5015657;28;45413;-59
2022/10/07 05:36:04;;;;;;;;;17.75;13.00;;;;;13.85;58.10;101919.91;5016139;28;45294;-60
2022/10/07 05:38:30;;;;;;;;;14.60;13.00;;;;;13.76;58.47;101905.44;5016651;28;46615;-61
2022/10/07 05:40:59;;;;;;;;;14.00;11.25;;;;;13.77;58.23;101923.69;5016625;28;45466;-61
2022/10/07 05:43:29;;;;;;;;;13.80;11.80;;;;;13.77;58.09;101919.00;5016478;28;45344;-58
2022/10/07 05:46:01;;;;;;;;;15.20;12.80;;;;;13.75;58.15;101917.50;5015355;28;45865;-60
2022/10/07 05:48:28;;;;;;;;;19.20;14.40;;;;;13.65;58.30;101910.47;5015239;28;46760;-58
2022/10/07 05:50:56;;;;;;;;;16.40;16.40;;;;;13.51;58.74;101914.22;5015104;28;45452;-59
2022/10/07 05:53:22;;;;;;;;;17.20;16.20;;;;;13.33;59.06;101865.09;5015169;28;45492;-59
2022/10/07 05:55:49;;;;;;;;;18.00;16.00;;;;;13.27;58.71;101844.69;5016779;28;45344;-61
2022/10/07 05:58:15;;;;;;;;;20.80;16.20;;;;;13.41;58.71;101857.47;5016076;28;45582;-59
2022/10/07 06:00:53;;;;;;;;;18.25;16.25;;;;;13.74;58.54;101907.53;5016384;28;45329;-59
2022/10/07 06:03:19;;;;;;;;;17.80;15.40;;;;;13.71;58.75;101910.72;5015122;28;45460;-59
2022/10/07 06:05:45;;;;;;;;;19.00;17.50;;;;;13.55;58.12;101891.53;5048479;28;45494;-59
2022/10/07 06:08:11;;;;;;;;;15.40;14.20;;;;;13.64;58.41;101903.25;5015871;28;46261;-59
2022/10/07 06:13:21;;;;;;;;;21.80;20.20;;;;;13.31;58.39;101881.81;5016292;28;45327;-63
2022/10/07 06:15:46;;;;;;;;;23.00;19.75;;;;;13.43;58.89;101901.41;5016451;28;45302;-61
2022/10/07 06:18:12;;;;;;;;;17.25;17.00;;;;;13.41;59.11;101885.06;5047625;28;46178;-61
2022/10/07 06:20:38;;;;;;;;;17.00;16.00;;;;;13.52;59.01;101907.66;5015956;28;45216;-61
2022/10/07 06:23:05;;;;;;;;;19.75;16.75;;;;;13.22;59.31;101869.22;5047940;28;45526;-62
2022/10/07 06:25:31;;;;;;;;;18.00;16.40;;;;;13.11;58.96;101863.25;5015989;28;45614;-61
2022/10/07 06:27:57;;;;;;;;;19.50;18.00;;;;;13.44;59.27;101908.63;5014144;28;47155;-61
2022/10/07 06:30:24;;;;;;;;;20.75;16.25;;;;;13.49;59.03;101903.38;5015648;28;45866;-61
2022/10/07 06:32:50;;;;;;;;;19.00;18.40;;;;;13.35;59.08;101862.97;5015829;28;45327;-62
2022/10/07 06:35:15;;;;;;;;;15.00;14.50;;;;;13.59;58.34;101899.38;5015746;28;45556;-62
2022/10/07 06:37:41;;;;;;;;;21.25;15.75;;;;;13.66;58.59;101908.56;5014207;28;45395;-61
2022/10/07 06:40:07;;;;;;;;;21.75;18.75;;;;;13.37;58.39;101875.50;5047594;28;45346;-61
2022/10/07 06:42:32;;;;;;;;;18.25;15.25;;;;;13.46;58.63;101917.59;5047872;28;45348;-62
2022/10/07 06:44:58;;;;;;;;;20.75;17.25;;;;;13.46;59.09;101911.22;4985164;28;45651;-62
2022/10/07 06:47:23;;;;;;;;;18.50;15.50;;;;;13.46;58.98;101906.56;5014450;28;46719;-61
2022/10/07 06:49:49;;;;;;;;;23.25;17.50;;;;;13.48;58.88;101909.09;5013410;28;45343;-61
2022/10/07 06:52:14;;;;;;;;;15.00;14.50;;;;;13.35;58.55;101885.03;4994378;28;45386;-60
2022/10/07 06:54:40;;;;;;;;;21.25;17.25;;;;;13.29;58.73;101872.91;4994761;28;45471;-61
2022/10/07 06:57:06;;;;;;;;;19.50;19.50;;;;;13.50;58.41;101909.75;4995649;28;46825;-61
2022/10/07 06:59:32;;;;;;;;;21.50;15.25;;;;;13.50;58.13;101901.50;4995845;28;45306;-61
2022/10/07 07:01:58;;;;;;;;;23.25;18.00;;;;;13.39;58.42;101902.84;4995893;28;45435;-62
2022/10/07 07:04:24;;;;;;;;;20.00;16.00;;;;;13.42;58.68;101910.72;5008726;28;45575;-62
2022/10/07 07:06:49;;;;;;;;;20.60;16.00;;;;;13.40;58.52;101915.59;4997244;28;48360;-62
2022/10/07 07:09:15;;;;;;;;;18.50;18.50;;;;;13.25;58.89;101882.63;5015230;28;45302;-64
2022/10/07 07:11:42;;;;;;;;;19.00;16.00;;;;;13.14;58.49;101865.59;5014199;28;45457;-61
2022/10/07 07:14:08;;;;;;;;;14.20;13.40;;;;;13.47;58.76;101923.94;5015469;28;45334;-57
2022/10/07 07:16:36;;;;;;;;;22.40;20.00;;;;;13.46;58.81;101914.84;5013275;28;47134;-62
2022/10/07 07:19:15;;;;;;;;;25.00;22.20;;;;;13.47;58.50;101916.53;5013378;28;45585;-59
2022/10/07 07:21:41;;;;;;;;;21.00;17.20;;;;;13.48;58.18;101914.59;5015008;28;45395;-59
2022/10/07 07:24:07;;;;;;;;;15.50;15.00;;;;;13.51;58.40;101909.53;5015585;28;45377;-62
2022/10/07 07:26:32;;;;;;;;;17.00;15.00;;;;;13.57;58.11;101910.66;5030229;28;47160;-61
2022/10/07 07:29:00;;;;;;;;;19.25;16.00;;;;;13.59;58.54;101904.91;5013744;28;45301;-60
2022/10/07 07:31:30;;;;;;;;;21.20;17.40;;;;;13.51;58.00;101901.25;5015245;28;45551;-59
2022/10/07 07:33:59;;;;;;;;;21.00;16.80;;;;;13.60;58.15;101912.16;5030730;28;45596;-61
2022/10/07 07:36:25;;;;;;;;;15.60;13.20;;;;;13.61;58.03;101906.41;5014959;28;45507;-60
2022/10/07 07:38:55;;;;;;;;;22.50;17.25;;;;;13.60;58.13;101898.34;5047112;28;45385;-61
2022/10/07 07:41:23;;;;;;;;;19.00;16.00;;;;;13.57;58.02;101905.13;5015336;28;45352;-60
2022/10/07 07:43:53;;;;;;;;;21.00;16.40;;;;;13.59;58.07;101905.78;5007576;28;45467;-58
2022/10/07 07:46:22;;;;;;;;;18.60;16.80;;;;;13.60;58.33;101893.69;4997485;28;45350;-59
2022/10/07 07:48:48;;;;;;;;;14.80;14.80;;;;;13.72;57.69;101899.47;4975468;28;45392;-59
2022/10/07 07:51:16;;;;;;;;;16.00;15.40;;;;;13.75;57.67;101892.69;5022461;28;45408;-60
2022/10/07 07:53:42;;;;;;;;;21.40;17.00;;;;;13.77;57.91;101879.56;5015222;28;46075;-64
2022/10/07 07:56:08;;;;;;;;;18.80;18.00;;;;;13.60;57.55;101852.31;5013322;28;46153;-59
2022/10/07 07:58:34;;;;;;;;;21.50;17.25;;;;;13.89;57.88;101888.09;5013586;28;45417;-59
2022/10/07 08:01:04;;;;;;;;;19.00;14.50;;;;;13.77;57.66;101866.59;5017040;28;45403;-59
2022/10/07 08:03:36;;;;;;;;;20.00;15.80;;;;;13.88;57.59;101873.41;5016906;28;45471;-59
2022/10/07 08:06:03;;;;;;;;;19.00;15.20;;;;;13.98;56.97;101883.25;5000831;28;48685;-59
2022/10/07 08:08:29;;;;;;;;;18.20;15.20;;;;;14.05;57.47;101886.88;5033410;28;45324;-59
2022/10/07 08:10:54;;;;;;;;;16.00;16.00;;;;;14.10;57.28;101887.09;5018063;28;45306;-60
2022/10/07 08:13:20;;;;;;;;;19.50;14.00;;;;;14.12;57.12;101893.25;5017995;28;45409;-60
2022/10/07 08:15:45;;;;;;;;;15.75;14.25;;;;;14.14;56.96;101893.88;5017521;28;45743;-55
2022/10/07 08:18:11;;;;;;;;;15.25;13.50;;;;;14.12;56.60;101879.47;5017878;28;45958;-60
2022/10/07 08:20:37;;;;;;;;;14.75;12.50;;;;;14.18;56.99;101892.44;4999657;28;45457;-62
2022/10/07 08:23:03;;;;;;;;;13.00;13.00;;;;;14.12;56.37;101865.66;4980461;28;46036;-61
2022/10/07 08:25:29;;;;;;;;;12.60;12.00;;;;;14.27;56.02;101887.56;4986264;28;45498;-61
2022/10/07 08:27:54;;;;;;;;;15.00;12.25;;;;;14.28;56.53;101878.22;4994567;28;45442;-62
2022/10/07 08:30:20;;;;;;;;;9.75;8.75;;;;;14.29;56.22;101882.69;5011874;28;45801;-62
2022/10/07 08:32:45;;;;;;;;;11.00;11.00;;;;;14.27;56.52;101879.28;4992277;28;45546;-61
2022/10/07 08:35:11;;;;;;;;;11.00;7.75;;;;;14.30;56.33;101875.25;4995920;28;46450;-63
2022/10/07 08:37:37;;;;;;;;;17.25;11.25;;;;;14.36;56.28;101874.44;5012447;28;45441;-61
2022/10/07 08:40:03;;;;;;;;;13.25;9.50;;;;;14.34;55.68;101869.09;4995372;28;45352;-62
2022/10/07 08:42:39;;;;;;;;;12.20;9.00;;;;;14.41;55.68;101858.03;5012126;28;45656;-61
2022/10/07 08:45:09;;;;;;;;;12.20;8.20;;;;;14.39;55.89;101849.13;5011554;28;47336;-61
2022/10/07 08:47:39;;;;;;;;;9.20;7.40;;;;;14.04;55.64;101792.16;5018684;28;45660;-61
2022/10/07 08:50:06;;;;;;;;;10.40;9.40;;;;;14.51;55.67;101863.16;4986223;28;45668;-60
2022/10/07 08:52:38;;;;;;;;;7.80;7.40;;;;;14.55;55.43;101863.59;4994312;28;45897;-60
2022/10/07 08:55:17;;;;;;;;;9.60;7.80;;;;;14.57;55.38;101867.00;5011403;28;47054;-60
2022/10/07 08:58:21;;;;;;;;;9.00;7.40;;;;;14.60;55.19;101858.28;5011510;28;45469;-60
2022/10/07 09:00:52;;;;;;;;;16.00;10.60;;;;;14.45;55.12;101826.19;5010993;28;45836;-60
2022/10/07 09:03:40;;;;;;;;;7.20;6.80;;;;;14.68;55.04;101851.72;5012070;28;45489;-61
2022/10/07 09:06:14;;;;;;;;;9.20;6.80;;;;;14.70;55.21;101842.16;5011496;28;45497;-61
2022/10/07 09:08:45;;;;;;;;;8.80;6.80;;;;;14.74;54.80;101848.97;5010424;28;45892;-59
2022/10/07 09:11:14;;;;;;;;;7.40;5.80;;;;;14.77;54.63;101844.91;5010637;28;45414;-61
2022/10/07 09:13:42;;;;;;;;;8.80;6.80;;;;;14.68;54.67;101813.84;5011172;28;45441;-60
2022/10/07 09:16:08;;;;;;;;;8.80;7.80;;;;;14.90;54.77;101839.38;5011230;28;45609;-61
2022/10/07 09:18:43;;;;;;;;;8.25;6.50;;;;;14.75;54.53;101802.84;4995711;28;45893;-61
2022/10/07 09:21:17;;;;;;;;;5.60;5.60;;;;;14.98;53.89;101824.50;4979899;28;45787;-61
2022/10/07 09:23:43;;;;;;;;;5.00;4.60;;;;;15.05;54.52;101821.72;4993732;28;45529;-60
2022/10/07 09:26:10;;;;;;;;;10.25;6.25;;;;;15.12;53.94;101824.47;5009861;28;45575;-60
2022/10/07 09:28:36;;;;;;;;;4.20;4.00;;;;;15.16;53.80;101818.28;4989196;28;45414;-59
2022/10/07 09:31:02;;;;;;;;;6.20;4.80;;;;;15.25;53.84;101815.28;4975289;28;45465;-60
2022/10/07 09:33:28;;;;;;;;;7.75;7.00;;;;;15.29;53.41;101813.78;4992214;28;45544;-62
2022/10/07 09:36:06;;;;;;;;;5.60;4.60;;;;;15.34;53.34;101808.47;5009003;28;46794;-57
2022/10/07 09:38:34;;;;;;;;;5.80;5.60;;;;;15.30;53.06;101780.38;4999289;28;45942;-59
2022/10/07 09:41:22;;;;;;;;;6.60;6.40;;;;;15.59;53.10;101804.97;5008270;28;45412;-60
2022/10/07 09:44:24;;;;;;;;;7.40;3.60;;;;;15.72;52.63;101801.28;5004979;28;45522;-62
2022/10/07 09:46:55;;;;;;;;;5.80;5.40;;;;;15.88;52.48;101801.81;4991994;28;45919;-60
2022/10/07 09:49:31;;;;;;;;;7.00;6.00;;;;;16.00;51.74;101802.84;5002352;28;45850;-60
2022/10/07 09:52:14;;;;;;;;;5.40;3.80;;;;;16.10;51.51;101785.72;5010889;28;45599;-63
2022/10/07 09:54:41;;;;;;;;;7.80;6.00;;;;;16.21;51.41;101781.41;5012016;28;45810;-61
2022/10/07 09:57:22;;;;;;;;;6.80;5.60;;;;;16.34;50.51;101784.06;4987587;28;45804;-61
2022/10/07 09:59:47;;;;;;;;;4.80;3.80;;;;;16.47;50.04;101783.13;5008780;28;46061;-61
2022/10/07 10:02:13;;;;;;;;;5.00;3.00;;;;;16.62;50.18;101771.69;5008559;28;45854;-61
2022/10/07 10:04:54;;;;;;;;;4.00;3.00;;;;;16.76;49.72;101763.25;5003001;28;45593;-61
2022/10/07 10:07:26;;;;;;;;;4.80;3.20;;;;;16.80;49.68;101753.38;4970971;28;46671;-62
2022/10/07 10:09:53;;;;;;;;;6.20;5.00;;;;;16.90;48.99;101756.47;5010290;28;45978;-59
2022/10/07 10:12:20;;;;;;;;;2.40;2.40;;;;;17.10;48.02;101765.69;4984062;28;45512;-60
2022/10/07 10:14:59;;;;;;;;;4.80;4.80;;;;;17.23;48.75;101759.13;5002696;28;45877;-59
2022/10/07 10:17:33;;;;;;;;;7.20;5.80;;;;;17.23;48.25;101731.41;5009122;28;46397;-60
2022/10/07 10:20:30;;;;;;;;;8.60;5.40;;;;;17.52;48.28;101742.75;5011795;28;45482;-60
2022/10/07 10:22:56;;;;;;;;;4.00;4.00;;;;;17.61;47.22;101744.13;4998458;28;45450;-59
2022/10/07 10:29:03;;;;;;;;;3.20;3.00;;;;;17.88;46.97;101738.19;5010179;28;45851;-54
2022/10/07 10:31:57;;;;;;;;;7.00;4.40;;;;;17.98;46.08;101741.22;5011829;28;45385;-61
2022/10/07 10:34:48;;;;;;;;;5.60;4.00;;;;;18.04;45.95;101735.81;5010532;28;45351;-61
2022/10/07 10:37:21;;;;;;;;;6.00;6.00;;;;;17.82;46.17;101678.06;5009332;28;45475;-59
2022/10/07 10:40:06;;;;;;;;;7.40;3.20;;;;;18.26;45.70;101725.00;5010307;28;46741;-60
2022/10/07 10:42:35;;;;;;;;;4.40;3.20;;;;;18.26;45.56;101711.09;5011422;28;45421;-60
2022/10/07 10:45:23;;;;;;;;;6.00;4.00;;;;;18.43;45.43;101733.47;5010449;28;45488;-58
2022/10/07 10:48:11;;;;;;;;;5.60;5.60;;;;;18.54;45.32;101723.44;4962816;27;45763;-59
2022/10/07 10:50:41;;;;;;;;;4.40;4.00;;;;;18.59;44.92;101706.88;5010567;28;45650;-59
2022/10/07 10:53:22;;;;;;;;;9.20;5.40;;;;;18.66;44.46;101712.31;5014246;28;45948;-59
2022/10/07 10:56:22;;;;;;;;;5.80;5.00;;;;;18.70;44.19;101713.53;5014751;28;45519;-57
2022/10/07 10:59:08;;;;;;;;;7.40;4.80;;;;;18.67;44.05;101689.81;4957430;28;45257;-59
2022/10/07 11:01:38;;;;;;;;;9.40;7.00;;;;;18.90;43.99;101701.16;5000373;28;45923;-60
2022/10/07 11:04:25;;;;;;;;;7.00;5.20;;;;;19.03;43.80;101697.28;5013911;28;45372;-60
2022/10/07 11:06:59;;;;;;;;;7.00;7.00;;;;;19.14;44.13;101693.63;5015844;28;45313;-61
2022/10/07 11:09:36;;;;;;;;;9.80;6.00;;;;;19.22;42.68;101689.63;5048091;28;45457;-57
2022/10/07 11:12:03;;;;;;;;;7.60;6.00;;;;;19.28;42.17;101688.63;5014122;28;47592;-59
2022/10/07 11:14:29;;;;;;;;;5.80;4.00;;;;;19.43;41.72;101685.28;5047129;28;45337;-57
2022/10/07 11:16:57;;;;;;;;;3.00;2.00;;;;;19.53;41.64;101675.44;4997871;28;45836;-60
2022/10/07 11:19:29;;;;;;;;;5.20;2.20;;;;;19.59;41.00;101678.06;5047953;28;45350;-58
2022/10/07 11:22:01;;;;;;;;;2.40;2.00;;;;;19.80;40.80;101680.38;4998143;28;47086;-55
2022/10/07 11:24:30;;;;;;;;;1.40;1.00;;;;;19.92;41.02;101675.56;5014288;28;45304;-57
2022/10/07 11:26:58;;;;;;;;;1.20;1.20;;;;;20.10;40.59;101666.16;5047616;28;45433;-57
2022/10/07 11:29:37;;;;;;;;;7.40;4.00;;;;;20.32;40.39;101659.78;5015253;28;45464;-57
2022/10/07 11:32:15;;;;;;;;;4.80;3.80;;;;;20.77;39.72;101657.91;5015132;28;45275;-61
2022/10/07 11:35:06;;;;;;;;;5.60;2.60;;;;;21.65;38.06;101650.53;4926667;28;46639;-63